KDET/DET METAR and TAF weather

Enter ICAO airport designator
Station Type Date Time Source
KDET METAR 2018/09/21 22:53 UTC NOAA

KDET 212253Z 29016G29KT 10SM CLR 24/11 A2988 RMK AO2 PK WND 27032/2159 PRESRR SLP115 T02440111


Station Type Date Time Source
KDET Decoded METAR 2018/09/21 22:53 UTC NOAA

DETROIT CITY AIRPORT, MI, United States (KDET) 42-25N 083-01W 190M
Sep 21, 2018 - 06:53 PM EDT / 2018.09.21 2253 UTC
Wind: from the WNW (290 degrees) at 18 MPH (16 KT) gusting to 33 MPH (29 KT):0
Visibility: 10 mile(s):0
Sky conditions: clear
Temperature: 75.9 F (24.4 C)
Dew Point: 52.0 F (11.1 C)
Relative Humidity: 43%
Pressure (altimeter): 29.88 in. Hg (1011 hPa)
Pressure tendency: rising rapidly
ob: KDET 212253Z 29016G29KT 10SM CLR 24/11 A2988 RMK AO2 PK WND 27032/2159 PRESRR SLP115 T02440111
cycle: 23

Station Type Date Time Source
KDET TAF 2018/09/21 21:18 UTC NOAA

TAF
AMD KDET 212115Z 2121/2218 28016G25KT P6SM SCT045 BKN250
FM220400 32012KT P6SM BKN025
FM221200 01009KT P6SM BKN035 BKN150


Example: see airport list